createdAt,value
2022-12-29T00:00:07.206Z,6.28
2022-12-29T00:02:34.246Z,7.63
2022-12-29T00:05:01.261Z,8.30
2022-12-29T00:07:28.280Z,7.32
2022-12-29T00:09:55.285Z,6.78
2022-12-29T00:12:22.319Z,8.07
2022-12-29T00:15:07.582Z,8.45
2022-12-29T00:17:34.476Z,7.50
2022-12-29T00:20:19.942Z,8.15
2022-12-29T00:23:05.324Z,7.90
2022-12-29T00:25:50.716Z,8.55
2022-12-29T00:28:35.873Z,8.02
2022-12-29T00:31:21.155Z,8.57
2022-12-29T00:34:06.736Z,8.00
2022-12-29T00:36:37.853Z,7.50
2022-12-29T00:39:30.441Z,7.85
2022-12-29T00:42:15.705Z,7.60
2022-12-29T00:44:44.266Z,7.35
2022-12-29T00:47:11.183Z,7.30
2022-12-29T00:49:38.445Z,7.30
2022-12-29T00:52:11.441Z,6.70
2022-12-29T00:54:39.999Z,6.88
2022-12-29T00:57:09.040Z,6.50
2022-12-29T00:59:37.191Z,5.97
2022-12-29T01:02:04.451Z,6.50
2022-12-29T01:04:31.407Z,6.05
2022-12-29T01:06:58.418Z,5.68
2022-12-29T01:09:44.177Z,5.90
2022-12-29T01:12:11.570Z,6.07
2022-12-29T01:14:38.733Z,5.45
2022-12-29T01:17:06.596Z,5.30
2022-12-29T01:19:33.532Z,5.40
2022-12-29T01:22:00.995Z,5.13
2022-12-29T01:24:28.128Z,5.10
2022-12-29T01:26:55.708Z,5.10
2022-12-29T01:29:23.235Z,4.65
2022-12-29T01:31:51.075Z,4.65
2022-12-29T01:34:18.684Z,4.85
2022-12-29T01:36:45.649Z,4.93
2022-12-29T01:39:12.702Z,4.35
2022-12-29T01:41:39.712Z,4.72
2022-12-29T01:44:43.827Z,4.85
2022-12-29T01:47:10.886Z,4.25
2022-12-29T01:49:38.312Z,4.50
2022-12-29T01:52:09.057Z,4.75
2022-12-29T01:54:44.899Z,4.18
2022-12-29T01:57:26.187Z,4.30
2022-12-29T02:00:01.073Z,4.38
2022-12-29T02:02:33.101Z,4.00
2022-12-29T02:05:04.808Z,4.32
2022-12-29T02:07:32.811Z,4.35
2022-12-29T02:10:01.744Z,3.47
2022-12-29T02:12:28.775Z,4.32
2022-12-29T02:15:01.447Z,3.63
2022-12-29T02:17:39.168Z,4.15
2022-12-29T02:20:30.387Z,3.90
2022-12-29T02:23:14.721Z,3.42
2022-12-29T02:26:12.219Z,3.63
2022-12-29T02:28:39.105Z,3.67
2022-12-29T02:31:24.863Z,3.33
2022-12-29T02:34:11.710Z,3.75
2022-12-29T02:36:50.540Z,3.60
2022-12-29T02:39:26.026Z,3.75
2022-12-29T02:42:30.748Z,3.60
2022-12-29T02:45:28.380Z,3.38
2022-12-29T02:48:20.325Z,3.42
2022-12-29T02:51:19.595Z,3.13
2022-12-29T02:54:06.092Z,3.20
2022-12-29T02:56:32.999Z,3.65
2022-12-29T02:58:59.953Z,3.47
2022-12-29T03:01:36.097Z,3.13
2022-12-29T03:04:28.081Z,2.80
2022-12-29T03:07:08.584Z,3.03
2022-12-29T03:09:54.543Z,3.10
2022-12-29T03:13:08.801Z,3.72
2022-12-29T03:15:59.277Z,3.25
2022-12-29T03:18:54.032Z,3.20
2022-12-29T03:22:09.384Z,3.40
2022-12-29T03:24:41.300Z,3.30
2022-12-29T03:27:12.200Z,3.35
2022-12-29T03:29:46.120Z,3.30
2022-12-29T03:32:16.033Z,4.28
2022-12-29T03:34:46.226Z,3.92
2022-12-29T03:37:18.399Z,3.72
2022-12-29T03:39:45.798Z,4.32
2022-12-29T03:42:21.110Z,4.05
2022-12-29T03:44:48.798Z,4.13
2022-12-29T03:47:16.477Z,4.45
2022-12-29T03:49:44.187Z,4.72
2022-12-29T03:52:11.072Z,4.78
2022-12-29T03:54:38.017Z,5.13
2022-12-29T03:57:04.893Z,5.95
2022-12-29T03:59:31.940Z,5.47
2022-12-29T04:01:58.865Z,5.43
2022-12-29T04:04:25.860Z,5.40
2022-12-29T04:06:52.851Z,6.40
2022-12-29T04:09:19.828Z,5.97
2022-12-29T04:11:46.779Z,7.10
2022-12-29T04:14:13.743Z,6.97
2022-12-29T04:16:41.337Z,7.07
2022-12-29T04:19:08.807Z,7.90
2022-12-29T04:21:35.895Z,8.05
2022-12-29T04:24:02.949Z,8.25
2022-12-29T04:26:29.845Z,9.45
2022-12-29T04:28:56.722Z,10.10
2022-12-29T04:31:23.703Z,10.57
2022-12-29T04:33:50.605Z,11.18
2022-12-29T04:36:17.547Z,11.02
2022-12-29T04:38:45.685Z,11.25
2022-12-29T04:41:12.605Z,12.07
2022-12-29T04:43:39.476Z,12.60
2022-12-29T04:46:06.799Z,11.73
2022-12-29T04:48:34.535Z,12.57
2022-12-29T04:51:01.668Z,11.38
2022-12-29T04:53:28.747Z,12.65
2022-12-29T04:55:55.748Z,13.55
2022-12-29T04:58:23.546Z,12.73
2022-12-29T05:00:52.293Z,13.45
2022-12-29T05:03:19.864Z,13.18
2022-12-29T05:05:46.799Z,14.13
2022-12-29T05:08:13.778Z,14.65
2022-12-29T05:10:40.967Z,13.75
2022-12-29T05:13:08.253Z,14.25
2022-12-29T05:15:35.169Z,14.80
2022-12-29T05:18:02.143Z,15.68
2022-12-29T05:20:29.047Z,15.32
2022-12-29T05:22:55.929Z,14.68
2022-12-29T05:25:22.869Z,15.75
2022-12-29T05:27:49.781Z,15.60
2022-12-29T05:30:16.892Z,14.70
2022-12-29T05:32:44.090Z,15.00
2022-12-29T05:35:10.979Z,15.77
2022-12-29T05:37:37.857Z,15.10
2022-12-29T05:40:05.438Z,15.82
2022-12-29T05:42:32.314Z,15.93
2022-12-29T05:44:59.587Z,15.25
2022-12-29T05:47:26.503Z,15.02
2022-12-29T05:49:53.402Z,14.07
2022-12-29T05:52:20.426Z,14.65
2022-12-29T05:54:47.357Z,15.48
2022-12-29T05:57:14.247Z,16.35
2022-12-29T05:59:41.171Z,15.80
2022-12-29T06:02:08.167Z,15.57
2022-12-29T06:04:35.154Z,15.23
2022-12-29T06:07:02.101Z,15.52
2022-12-29T06:09:29.068Z,15.52
2022-12-29T06:11:56.018Z,14.82
2022-12-29T06:14:22.986Z,15.52
2022-12-29T06:16:49.895Z,13.70
2022-12-29T06:19:16.897Z,14.70
2022-12-29T06:21:44.194Z,14.30
2022-12-29T06:24:12.171Z,15.10
2022-12-29T06:26:39.331Z,15.00
2022-12-29T06:29:06.543Z,15.05
2022-12-29T06:31:34.055Z,14.95
2022-12-29T06:34:06.458Z,13.63
2022-12-29T06:36:35.402Z,14.65
2022-12-29T06:39:02.336Z,13.20
2022-12-29T06:41:32.324Z,13.23
2022-12-29T06:43:59.556Z,13.57
2022-12-29T06:46:26.623Z,13.55
2022-12-29T06:48:53.558Z,13.27
2022-12-29T06:51:20.781Z,13.68
2022-12-29T06:53:47.679Z,13.07
2022-12-29T06:56:14.628Z,13.23
2022-12-29T06:58:41.564Z,13.95
2022-12-29T07:01:08.617Z,12.55
2022-12-29T07:03:35.733Z,13.43
2022-12-29T07:06:02.821Z,13.98
2022-12-29T07:08:29.769Z,13.18
2022-12-29T07:10:56.669Z,12.73
2022-12-29T07:13:24.219Z,11.82
2022-12-29T07:15:51.103Z,14.10
2022-12-29T07:18:18.060Z,11.82
2022-12-29T07:20:45.164Z,11.50
2022-12-29T07:23:12.421Z,11.82
2022-12-29T07:25:41.471Z,12.18
2022-12-29T07:28:08.630Z,12.70
2022-12-29T07:30:38.524Z,11.95
2022-12-29T07:33:05.688Z,11.20
2022-12-29T07:35:34.265Z,11.55
2022-12-29T07:38:01.172Z,12.63
2022-12-29T07:40:28.171Z,11.85
2022-12-29T07:42:55.080Z,12.02
2022-12-29T07:45:22.533Z,11.63
2022-12-29T07:47:52.376Z,10.93
2022-12-29T07:50:19.424Z,11.07
2022-12-29T07:52:48.065Z,10.27
2022-12-29T07:55:16.221Z,10.80
2022-12-29T07:57:43.511Z,10.80
2022-12-29T08:00:11.232Z,10.77
2022-12-29T08:02:38.146Z,10.73
2022-12-29T08:05:05.447Z,10.80
2022-12-29T08:07:32.359Z,11.40
2022-12-29T08:09:59.299Z,11.10
2022-12-29T08:12:26.177Z,9.65
2022-12-29T08:14:53.599Z,10.50
2022-12-29T08:17:20.513Z,9.88
2022-12-29T08:19:47.527Z,11.90
2022-12-29T08:26:03.828Z,8.65
2022-12-29T08:28:31.149Z,9.43
2022-12-29T08:34:46.017Z,7.72
2022-12-29T08:37:13.098Z,8.27
2022-12-29T08:39:40.093Z,8.00
2022-12-29T08:42:07.415Z,7.35
2022-12-29T08:44:37.652Z,7.57
2022-12-29T08:47:04.630Z,7.78
2022-12-29T08:49:31.598Z,7.90
2022-12-29T08:51:58.470Z,7.20
2022-12-29T08:54:25.403Z,7.68
2022-12-29T08:56:52.720Z,7.68
2022-12-29T08:59:19.642Z,7.38
2022-12-29T09:01:46.670Z,7.05
2022-12-29T09:04:15.998Z,7.15
2022-12-29T09:06:43.609Z,6.63
2022-12-29T09:09:10.660Z,7.50
2022-12-29T09:11:37.581Z,6.78
2022-12-29T09:14:05.216Z,6.43
2022-12-29T09:16:32.435Z,6.45
2022-12-29T09:18:59.593Z,6.60
2022-12-29T09:21:26.778Z,7.00
2022-12-29T09:23:53.738Z,6.80
2022-12-29T09:26:20.712Z,6.30
2022-12-29T09:28:48.265Z,6.10
2022-12-29T09:31:15.524Z,6.80
2022-12-29T09:33:42.657Z,6.85
2022-12-29T09:36:10.130Z,7.07
2022-12-29T09:38:37.084Z,6.82
2022-12-29T09:41:19.845Z,7.22
2022-12-29T09:44:04.676Z,6.63
2022-12-29T09:49:42.149Z,6.70
2022-12-29T09:52:16.033Z,6.47
2022-12-29T09:55:13.796Z,6.80
2022-12-29T09:57:47.720Z,6.38
2022-12-29T10:00:18.564Z,6.00
2022-12-29T10:02:51.273Z,7.22
2022-12-29T10:05:27.688Z,7.22
2022-12-29T10:08:40.283Z,6.35
2022-12-29T10:11:25.523Z,6.20
2022-12-29T10:14:26.463Z,6.05
2022-12-29T10:17:20.803Z,6.30
2022-12-29T10:20:07.972Z,6.53
2022-12-29T10:22:50.795Z,6.05
2022-12-29T10:25:28.427Z,7.05
2022-12-29T10:28:02.319Z,6.80
2022-12-29T10:30:30.005Z,6.38
2022-12-29T10:33:02.407Z,5.50
2022-12-29T10:35:41.683Z,5.32
2022-12-29T10:38:25.358Z,5.28
2022-12-29T10:41:14.981Z,6.00
2022-12-29T10:43:48.873Z,4.65
2022-12-29T10:46:20.188Z,5.18
2022-12-29T10:48:47.773Z,5.10
2022-12-29T10:51:38.258Z,5.03
2022-12-29T10:54:11.761Z,4.97
2022-12-29T10:56:47.073Z,5.63
2022-12-29T10:59:23.461Z,4.85
2022-12-29T11:02:03.754Z,5.20
2022-12-29T11:04:55.509Z,5.28
2022-12-29T11:07:26.966Z,5.13
2022-12-29T11:09:54.805Z,4.82
2022-12-29T11:12:32.616Z,4.85
2022-12-29T11:15:13.172Z,5.40
2022-12-29T11:17:51.969Z,4.93
2022-12-29T11:20:34.202Z,5.13
2022-12-29T11:23:02.026Z,5.03
2022-12-29T11:25:29.163Z,5.22
2022-12-29T11:28:15.516Z,5.00
2022-12-29T11:30:43.196Z,5.50
2022-12-29T11:33:10.797Z,4.97
2022-12-29T11:35:42.179Z,5.07
2022-12-29T11:41:54.375Z,4.93
2022-12-29T11:44:21.585Z,4.95
2022-12-29T11:46:53.007Z,4.50
2022-12-29T11:49:23.228Z,4.45
2022-12-29T11:51:52.951Z,4.95
2022-12-29T11:54:33.817Z,4.43
2022-12-29T11:57:17.327Z,4.97
2022-12-29T11:59:49.715Z,5.78
2022-12-29T12:02:43.090Z,4.45
2022-12-29T12:05:18.815Z,5.10
2022-12-29T12:08:03.448Z,5.22
2022-12-29T12:10:39.634Z,5.28
2022-12-29T12:13:18.841Z,5.38
2022-12-29T12:15:56.169Z,4.72
2022-12-29T12:18:33.382Z,4.88
2022-12-29T12:21:15.771Z,4.85
2022-12-29T12:23:57.571Z,6.13
2022-12-29T12:27:02.216Z,5.60
2022-12-29T12:29:42.939Z,6.00
2022-12-29T12:32:15.787Z,5.18
2022-12-29T12:34:47.528Z,5.00
2022-12-29T12:37:14.960Z,4.45
2022-12-29T12:40:00.468Z,4.88
2022-12-29T12:42:48.904Z,5.10
2022-12-29T12:45:36.317Z,4.97
2022-12-29T12:48:24.392Z,4.40
2022-12-29T12:51:06.446Z,4.20
2022-12-29T12:53:42.473Z,4.97
2022-12-29T12:56:39.111Z,4.72
2022-12-29T12:59:30.943Z,4.40
2022-12-29T13:02:27.572Z,4.93
2022-12-29T13:05:26.411Z,4.72
2022-12-29T13:08:24.960Z,5.15
2022-12-29T13:11:23.998Z,5.00
2022-12-29T13:14:08.911Z,4.55
2022-12-29T13:16:41.837Z,5.00
2022-12-29T13:19:56.026Z,4.32
2022-12-29T13:22:29.041Z,5.10
2022-12-29T13:25:21.084Z,4.97
2022-12-29T13:28:03.788Z,4.35
2022-12-29T13:30:39.368Z,5.07
2022-12-29T13:33:09.260Z,5.47
2022-12-29T13:35:51.922Z,4.63
2022-12-29T13:38:49.623Z,4.72
2022-12-29T13:41:30.969Z,4.82
2022-12-29T13:43:59.685Z,5.03
2022-12-29T13:46:34.902Z,5.20
2022-12-29T13:49:05.575Z,4.45
2022-12-29T13:51:33.394Z,5.10
2022-12-29T13:54:25.491Z,5.25
2022-12-29T13:57:27.806Z,5.15
2022-12-29T14:00:27.042Z,5.43
2022-12-29T14:03:30.031Z,5.15
2022-12-29T14:06:20.495Z,5.25
2022-12-29T14:08:51.449Z,6.07
2022-12-29T14:11:21.537Z,6.00
2022-12-29T14:13:49.703Z,6.28
2022-12-29T14:16:27.038Z,5.78
2022-12-29T14:18:55.626Z,6.43
2022-12-29T14:21:28.969Z,5.93
2022-12-29T14:24:01.974Z,5.50
2022-12-29T14:26:31.940Z,6.00
2022-12-29T14:29:22.649Z,6.32
2022-12-29T14:31:49.611Z,5.85
2022-12-29T14:34:27.127Z,6.93
2022-12-29T14:37:03.627Z,6.63
2022-12-29T14:39:42.846Z,6.20
2022-12-29T14:42:15.498Z,6.07
2022-12-29T14:45:09.841Z,6.45
2022-12-29T14:47:55.411Z,6.22
2022-12-29T14:50:22.265Z,6.13
2022-12-29T14:53:02.482Z,6.18
2022-12-29T14:55:48.230Z,7.57
2022-12-29T14:58:28.987Z,6.63
2022-12-29T15:00:56.603Z,6.28
2022-12-29T15:03:33.795Z,6.20
2022-12-29T15:06:12.441Z,6.43
2022-12-29T15:08:46.421Z,5.93
2022-12-29T15:11:25.328Z,5.70
2022-12-29T15:13:52.641Z,6.20
2022-12-29T15:16:34.444Z,6.05
2022-12-29T15:19:01.472Z,5.50
2022-12-29T15:21:34.609Z,5.53
2022-12-29T15:24:03.394Z,6.13
2022-12-29T15:26:46.523Z,5.63
2022-12-29T15:29:31.133Z,5.85
2022-12-29T15:32:01.378Z,5.38
2022-12-29T15:34:32.078Z,4.97
2022-12-29T15:37:00.563Z,5.03
2022-12-29T15:39:32.342Z,5.20
2022-12-29T15:42:28.242Z,5.10
2022-12-29T15:45:09.261Z,5.47
2022-12-29T15:47:37.978Z,5.30
2022-12-29T15:50:29.404Z,5.55
2022-12-29T15:52:57.003Z,5.60
2022-12-29T15:55:43.580Z,5.43
2022-12-29T15:58:25.296Z,5.20
2022-12-29T16:00:58.093Z,5.20
2022-12-29T16:03:27.908Z,5.35
2022-12-29T16:06:30.664Z,6.20
2022-12-29T16:09:15.109Z,5.35
2022-12-29T16:11:48.694Z,5.90
2022-12-29T16:14:22.083Z,5.47
2022-12-29T16:16:51.035Z,6.20
2022-12-29T16:19:35.742Z,5.45
2022-12-29T16:22:04.613Z,5.78
2022-12-29T16:24:33.723Z,5.22
2022-12-29T16:27:06.431Z,6.22
2022-12-29T16:29:34.418Z,5.35
2022-12-29T16:32:04.230Z,4.28
2022-12-29T16:34:49.414Z,4.30
2022-12-29T16:37:34.404Z,4.97
2022-12-29T16:40:23.270Z,4.93
2022-12-29T16:42:52.541Z,4.70
2022-12-29T16:45:19.574Z,4.88
2022-12-29T16:47:50.987Z,4.85
2022-12-29T16:50:28.284Z,5.78
2022-12-29T16:52:55.659Z,4.93
2022-12-29T16:55:22.683Z,5.32
2022-12-29T16:57:54.137Z,4.50
2022-12-29T17:00:27.532Z,5.00
2022-12-29T17:02:58.676Z,4.90
2022-12-29T17:05:25.712Z,4.72
2022-12-29T17:07:53.957Z,4.25
2022-12-29T17:10:21.026Z,4.07
2022-12-29T17:12:49.795Z,3.58
2022-12-29T17:15:26.126Z,4.32
2022-12-29T17:17:55.328Z,3.88
2022-12-29T17:20:29.682Z,3.63
2022-12-29T17:22:57.495Z,3.88
2022-12-29T17:25:33.264Z,3.70
2022-12-29T17:28:25.041Z,3.03
2022-12-29T17:30:55.460Z,3.50
2022-12-29T17:33:22.550Z,3.42
2022-12-29T17:35:55.105Z,3.65
2022-12-29T17:38:35.416Z,4.40
2022-12-29T17:41:02.663Z,5.00
2022-12-29T17:43:36.405Z,4.82
2022-12-29T17:48:32.833Z,5.18
2022-12-29T17:50:59.907Z,5.32
2022-12-29T17:53:29.825Z,5.78
2022-12-29T17:55:56.842Z,5.57
2022-12-29T17:58:25.347Z,5.05
2022-12-29T18:00:55.789Z,5.65
2022-12-29T18:03:28.944Z,5.63
2022-12-29T18:05:56.337Z,5.28
2022-12-29T18:08:23.529Z,5.57
2022-12-29T18:10:54.134Z,5.22
2022-12-29T18:13:23.088Z,5.78
2022-12-29T18:15:50.830Z,6.18
2022-12-29T18:18:21.466Z,6.18
2022-12-29T18:20:50.668Z,5.97
2022-12-29T18:23:44.031Z,6.20
2022-12-29T18:26:27.739Z,6.53
2022-12-29T18:28:56.378Z,7.47
2022-12-29T18:31:25.988Z,6.80
2022-12-29T18:33:54.657Z,6.57
2022-12-29T18:36:22.610Z,6.78
2022-12-29T18:38:50.966Z,5.97
2022-12-29T18:41:24.039Z,6.22
2022-12-29T18:47:31.789Z,6.57
2022-12-29T18:49:58.744Z,6.53
2022-12-29T18:52:25.688Z,6.15
2022-12-29T18:54:52.564Z,6.40
2022-12-29T18:57:19.459Z,6.60
2022-12-29T18:59:46.399Z,6.13
2022-12-29T19:02:17.870Z,6.45
2022-12-29T19:04:47.785Z,6.55
2022-12-29T19:07:16.966Z,6.22
2022-12-29T19:09:43.894Z,5.85
2022-12-29T19:12:16.358Z,6.20
2022-12-29T19:14:44.063Z,6.05
2022-12-29T19:17:14.644Z,6.45
2022-12-29T19:19:42.963Z,5.90
2022-12-29T19:22:10.082Z,5.72
2022-12-29T19:24:37.085Z,5.90
2022-12-29T19:27:04.059Z,5.30
2022-12-29T19:29:31.287Z,5.38
2022-12-29T19:31:58.228Z,4.93
2022-12-29T19:34:25.232Z,5.18
2022-12-29T19:36:52.171Z,5.60
2022-12-29T19:39:19.309Z,5.70
2022-12-29T19:41:46.284Z,4.75
2022-12-29T19:44:13.197Z,5.53
2022-12-29T19:46:40.279Z,5.13
2022-12-29T19:49:07.326Z,5.18
2022-12-29T19:51:34.609Z,4.78
2022-12-29T19:54:01.625Z,4.72
2022-12-29T19:56:28.660Z,5.78
2022-12-29T19:58:57.525Z,5.20
2022-12-29T20:01:26.242Z,5.00
2022-12-29T20:03:53.301Z,5.25
2022-12-29T20:06:20.541Z,4.90
2022-12-29T20:08:47.579Z,4.72
2022-12-29T20:11:17.159Z,4.88
2022-12-29T20:13:45.145Z,4.97
2022-12-29T20:16:15.162Z,4.70
2022-12-29T20:18:43.377Z,4.90
2022-12-29T20:21:23.003Z,4.35
2022-12-29T20:23:53.967Z,4.88
2022-12-29T20:26:24.283Z,4.90
2022-12-29T20:28:51.784Z,4.63
2022-12-29T20:31:32.070Z,4.30
2022-12-29T20:33:59.341Z,4.45
2022-12-29T20:36:29.495Z,4.60
2022-12-29T20:38:58.604Z,4.65
2022-12-29T20:41:26.222Z,3.92
2022-12-29T20:43:53.595Z,4.30
2022-12-29T20:46:24.155Z,4.35
2022-12-29T20:48:53.937Z,3.70
2022-12-29T20:51:21.387Z,3.78
2022-12-29T20:53:48.996Z,4.20
2022-12-29T20:56:22.023Z,4.70
2022-12-29T20:59:25.801Z,4.03
2022-12-29T21:01:37.792Z,3.60
2022-12-29T21:04:05.755Z,4.03
2022-12-29T21:06:33.916Z,4.15
2022-12-29T21:09:01.117Z,3.65
2022-12-29T21:11:28.904Z,4.03
2022-12-29T21:14:00.755Z,3.72
2022-12-29T21:16:28.146Z,4.03
2022-12-29T21:18:55.312Z,3.95
2022-12-29T21:21:24.571Z,3.97
2022-12-29T21:23:52.453Z,3.70
2022-12-29T21:26:22.769Z,3.90
2022-12-29T21:28:50.650Z,3.67
2022-12-29T21:31:24.732Z,3.33
2022-12-29T21:33:52.321Z,4.13
2022-12-29T21:36:19.581Z,3.53
2022-12-29T21:38:46.638Z,3.10
2022-12-29T21:41:15.321Z,3.67
2022-12-29T21:43:42.901Z,3.50
2022-12-29T21:46:09.872Z,3.22
2022-12-29T21:48:36.773Z,3.25
2022-12-29T21:51:30.713Z,3.65
2022-12-29T21:54:19.269Z,4.40
2022-12-29T21:56:47.488Z,2.72
2022-12-29T21:59:34.508Z,3.40
2022-12-29T22:02:22.413Z,3.13
2022-12-29T22:05:08.041Z,2.92
2022-12-29T22:07:53.359Z,2.80
2022-12-29T22:10:39.028Z,3.22
2022-12-29T22:13:05.902Z,3.53
2022-12-29T22:15:36.001Z,2.92
2022-12-29T22:18:04.060Z,3.05
2022-12-29T22:20:34.783Z,3.38
2022-12-29T22:23:02.314Z,2.70
2022-12-29T22:25:29.395Z,2.65
2022-12-29T22:27:59.428Z,2.85
2022-12-29T22:30:28.581Z,3.83
2022-12-29T22:32:57.565Z,3.55
2022-12-29T22:35:25.038Z,3.92
2022-12-29T22:37:51.983Z,4.43
2022-12-29T22:40:19.053Z,3.03
2022-12-29T22:48:59.838Z,3.10
2022-12-29T22:51:26.768Z,4.68
2022-12-29T22:53:53.897Z,6.22
2022-12-29T22:56:20.812Z,4.28
2022-12-29T22:58:48.498Z,11.63
2022-12-29T23:01:17.716Z,7.00
2022-12-29T23:03:45.265Z,4.78
2022-12-29T23:06:14.076Z,6.60
2022-12-29T23:08:41.225Z,5.82
2022-12-29T23:11:11.537Z,6.00
2022-12-29T23:13:41.158Z,2.83
2022-12-29T23:16:08.406Z,3.33
2022-12-29T23:18:35.465Z,3.00
2022-12-29T23:21:02.714Z,2.78
2022-12-29T23:23:49.501Z,3.78
2022-12-29T23:26:18.731Z,2.83
2022-12-29T23:28:45.681Z,3.00
2022-12-29T23:31:12.689Z,2.85
2022-12-29T23:33:40.043Z,3.20
2022-12-29T23:36:07.445Z,3.40
2022-12-29T23:38:34.628Z,4.10
2022-12-29T23:41:01.538Z,3.13
2022-12-29T23:43:28.634Z,2.83
2022-12-29T23:45:55.641Z,2.70
2022-12-29T23:48:22.586Z,2.75
2022-12-29T23:50:49.501Z,2.97
2022-12-29T23:53:16.453Z,3.58
2022-12-29T23:55:44.630Z,2.80
2022-12-29T23:58:11.627Z,2.78
